sensor_id;sensor_type;location;lat;lon;timestamp;pressure;altitude;pressure_sealevel;temperature;humidity
39793;BME280;26080;42.264;24.536;2023-05-22T00:00:06;98946.25;;;15.18;100.00
39793;BME280;26080;42.264;24.536;2023-05-22T00:02:33;98942.03;;;15.16;100.00
39793;BME280;26080;42.264;24.536;2023-05-22T00:05:04;98945.41;;;15.18;100.00
39793;BME280;26080;42.264;24.536;2023-05-22T00:07:30;98951.56;;;15.05;100.00
39793;BME280;26080;42.264;24.536;2023-05-22T00:09:56;98948.53;;;14.99;100.00
39793;BME280;26080;42.264;24.536;2023-05-22T00:12:21;98950.22;;;14.87;100.00
39793;BME280;26080;42.264;24.536;2023-05-22T00:14:47;98942.97;;;14.78;100.00
39793;BME280;26080;42.264;24.536;2023-05-22T00:17:12;98949.41;;;14.74;100.00
39793;BME280;26080;42.264;24.536;2023-05-22T00:19:39;98948.16;;;14.67;100.00
39793;BME280;26080;42.264;24.536;2023-05-22T00:22:05;98947.63;;;14.74;100.00
39793;BME280;26080;42.264;24.536;2023-05-22T00:24:30;98948.06;;;14.68;100.00
39793;BME280;26080;42.264;24.536;2023-05-22T00:26:56;98944.97;;;14.62;100.00
39793;BME280;26080;42.264;24.536;2023-05-22T00:29:22;98941.84;;;14.57;100.00
39793;BME280;26080;42.264;24.536;2023-05-22T00:31:47;98949.63;;;14.71;100.00
39793;BME280;26080;42.264;24.536;2023-05-22T00:34:13;98951.09;;;14.75;100.00
39793;BME280;26080;42.264;24.536;2023-05-22T00:36:38;98922.34;;;14.46;100.00
39793;BME280;26080;42.264;24.536;2023-05-22T00:39:03;98928.66;;;14.44;100.00
39793;BME280;26080;42.264;24.536;2023-05-22T00:41:30;98948.06;;;14.56;100.00
39793;BME280;26080;42.264;24.536;2023-05-22T00:43:58;98951.81;;;14.77;100.00
39793;BME280;26080;42.264;24.536;2023-05-22T00:46:24;98949.72;;;14.82;100.00
39793;BME280;26080;42.264;24.536;2023-05-22T00:48:49;98946.03;;;14.72;100.00
39793;BME280;26080;42.264;24.536;2023-05-22T00:51:18;98950.16;;;14.63;100.00
39793;BME280;26080;42.264;24.536;2023-05-22T00:53:45;98953.44;;;14.67;100.00
39793;BME280;26080;42.264;24.536;2023-05-22T00:56:11;98954.47;;;14.77;100.00
39793;BME280;26080;42.264;24.536;2023-05-22T00:58:37;98944.56;;;14.68;100.00
39793;BME280;26080;42.264;24.536;2023-05-22T01:01:03;98941.72;;;14.71;100.00
39793;BME280;26080;42.264;24.536;2023-05-22T01:03:31;98924.00;;;14.60;100.00
39793;BME280;26080;42.264;24.536;2023-05-22T01:05:57;98943.53;;;14.58;100.00
39793;BME280;26080;42.264;24.536;2023-05-22T01:08:23;98935.41;;;14.61;100.00
39793;BME280;26080;42.264;24.536;2023-05-22T01:10:57;98939.59;;;14.50;100.00
39793;BME280;26080;42.264;24.536;2023-05-22T01:14:19;98937.53;;;14.56;100.00
39793;BME280;26080;42.264;24.536;2023-05-22T01:16:27;98941.91;;;14.42;100.00
39793;BME280;26080;42.264;24.536;2023-05-22T01:24:40;98936.56;;;14.44;100.00
39793;BME280;26080;42.264;24.536;2023-05-22T01:32:56;98920.72;;;14.18;100.00
39793;BME280;26080;42.264;24.536;2023-05-22T01:35:23;98926.63;;;14.22;100.00
39793;BME280;26080;42.264;24.536;2023-05-22T01:37:50;98929.16;;;14.36;100.00
39793;BME280;26080;42.264;24.536;2023-05-22T01:40:17;98929.50;;;14.44;100.00
39793;BME280;26080;42.264;24.536;2023-05-22T01:42:42;98927.91;;;14.42;100.00
39793;BME280;26080;42.264;24.536;2023-05-22T01:45:09;98908.91;;;14.37;100.00
39793;BME280;26080;42.264;24.536;2023-05-22T01:47:35;98925.19;;;14.69;100.00
39793;BME280;26080;42.264;24.536;2023-05-22T01:50:04;98926.03;;;14.57;100.00
39793;BME280;26080;42.264;24.536;2023-05-22T01:55:32;98938.44;;;14.42;100.00
39793;BME280;26080;42.264;24.536;2023-05-22T02:00:49;98931.78;;;14.36;100.00
39793;BME280;26080;42.264;24.536;2023-05-22T02:03:21;98938.53;;;14.28;100.00
39793;BME280;26080;42.264;24.536;2023-05-22T02:05:52;98933.88;;;14.18;100.00
39793;BME280;26080;42.264;24.536;2023-05-22T02:08:19;98936.84;;;14.14;100.00
39793;BME280;26080;42.264;24.536;2023-05-22T02:10:45;98939.34;;;14.03;100.00
39793;BME280;26080;42.264;24.536;2023-05-22T02:13:11;98934.72;;;14.06;100.00
39793;BME280;26080;42.264;24.536;2023-05-22T02:15:37;98939.56;;;14.00;100.00
39793;BME280;26080;42.264;24.536;2023-05-22T02:18:09;98946.28;;;13.91;100.00
39793;BME280;26080;42.264;24.536;2023-05-22T02:20:37;98940.91;;;13.92;100.00
39793;BME280;26080;42.264;24.536;2023-05-22T02:23:05;98943.53;;;13.92;100.00
39793;BME280;26080;42.264;24.536;2023-05-22T02:25:31;98939.53;;;13.87;100.00
39793;BME280;26080;42.264;24.536;2023-05-22T02:27:56;98942.06;;;13.88;100.00
39793;BME280;26080;42.264;24.536;2023-05-22T02:30:21;98922.34;;;13.81;100.00
39793;BME280;26080;42.264;24.536;2023-05-22T02:32:47;98937.75;;;13.87;100.00
39793;BME280;26080;42.264;24.536;2023-05-22T02:35:12;98947.25;;;14.03;100.00
39793;BME280;26080;42.264;24.536;2023-05-22T02:37:38;98949.88;;;14.03;100.00
39793;BME280;26080;42.264;24.536;2023-05-22T02:40:04;98951.31;;;13.94;100.00
39793;BME280;26080;42.264;24.536;2023-05-22T02:42:32;98949.22;;;13.86;100.00
39793;BME280;26080;42.264;24.536;2023-05-22T02:44:58;98948.13;;;13.76;100.00
39793;BME280;26080;42.264;24.536;2023-05-22T02:47:23;98951.16;;;13.70;100.00
39793;BME280;26080;42.264;24.536;2023-05-22T02:49:49;98922.78;;;13.48;100.00
39793;BME280;26080;42.264;24.536;2023-05-22T02:52:14;98954.94;;;13.66;100.00
39793;BME280;26080;42.264;24.536;2023-05-22T02:54:40;98950.41;;;13.68;100.00
39793;BME280;26080;42.264;24.536;2023-05-22T02:57:06;98950.81;;;13.62;100.00
39793;BME280;26080;42.264;24.536;2023-05-22T02:59:31;98955.34;;;13.60;100.00
39793;BME280;26080;42.264;24.536;2023-05-22T03:01:57;98947.44;;;13.60;100.00
39793;BME280;26080;42.264;24.536;2023-05-22T03:04:22;98955.19;;;13.49;100.00
39793;BME280;26080;42.264;24.536;2023-05-22T03:06:48;98944.03;;;13.45;100.00
39793;BME280;26080;42.264;24.536;2023-05-22T03:09:14;98944.72;;;13.34;100.00
39793;BME280;26080;42.264;24.536;2023-05-22T03:11:40;98947.72;;;13.28;100.00
39793;BME280;26080;42.264;24.536;2023-05-22T03:14:05;98944.41;;;13.39;100.00
39793;BME280;26080;42.264;24.536;2023-05-22T03:16:31;98945.66;;;13.33;100.00
39793;BME280;26080;42.264;24.536;2023-05-22T03:19:10;98947.19;;;13.23;100.00
39793;BME280;26080;42.264;24.536;2023-05-22T03:21:36;98939.84;;;13.14;100.00
39793;BME280;26080;42.264;24.536;2023-05-22T03:24:02;98944.91;;;13.17;100.00
39793;BME280;26080;42.264;24.536;2023-05-22T03:26:28;98938.75;;;13.18;100.00
39793;BME280;26080;42.264;24.536;2023-05-22T03:28:54;98944.91;;;13.17;100.00
39793;BME280;26080;42.264;24.536;2023-05-22T03:31:20;98946.59;;;13.32;100.00
39793;BME280;26080;42.264;24.536;2023-05-22T03:33:47;98952.81;;;13.31;100.00
39793;BME280;26080;42.264;24.536;2023-05-22T03:36:12;98939.81;;;13.28;100.00
39793;BME280;26080;42.264;24.536;2023-05-22T03:38:37;98947.44;;;13.33;100.00
39793;BME280;26080;42.264;24.536;2023-05-22T03:41:03;98941.69;;;13.41;100.00
39793;BME280;26080;42.264;24.536;2023-05-22T03:43:28;98945.47;;;13.37;100.00
39793;BME280;26080;42.264;24.536;2023-05-22T03:45:54;98928.63;;;13.39;100.00
39793;BME280;26080;42.264;24.536;2023-05-22T03:48:19;98949.53;;;13.55;100.00
39793;BME280;26080;42.264;24.536;2023-05-22T03:50:45;98953.44;;;13.62;100.00
39793;BME280;26080;42.264;24.536;2023-05-22T03:53:10;98959.56;;;13.62;100.00
39793;BME280;26080;42.264;24.536;2023-05-22T03:55:36;98953.41;;;13.76;100.00
39793;BME280;26080;42.264;24.536;2023-05-22T03:58:01;98957.91;;;13.74;100.00
39793;BME280;26080;42.264;24.536;2023-05-22T04:00:27;98964.13;;;13.73;100.00
39793;BME280;26080;42.264;24.536;2023-05-22T04:02:52;98956.81;;;13.91;100.00
39793;BME280;26080;42.264;24.536;2023-05-22T04:05:19;98952.38;;;13.91;100.00
39793;BME280;26080;42.264;24.536;2023-05-22T04:07:44;98958.38;;;13.93;100.00
39793;BME280;26080;42.264;24.536;2023-05-22T04:10:10;98961.00;;;13.93;100.00
39793;BME280;26080;42.264;24.536;2023-05-22T04:12:35;98960.19;;;14.06;100.00
39793;BME280;26080;42.264;24.536;2023-05-22T04:15:01;98957.91;;;14.14;100.00
39793;BME280;26080;42.264;24.536;2023-05-22T04:17:30;98956.44;;;14.22;100.00
39793;BME280;26080;42.264;24.536;2023-05-22T04:19:57;98949.91;;;14.28;100.00
39793;BME280;26080;42.264;24.536;2023-05-22T04:22:22;98963.22;;;14.39;100.00
39793;BME280;26080;42.264;24.536;2023-05-22T04:24:48;98972.03;;;14.38;100.00
39793;BME280;26080;42.264;24.536;2023-05-22T04:27:14;98966.41;;;14.44;100.00
39793;BME280;26080;42.264;24.536;2023-05-22T04:29:39;98964.06;;;14.52;100.00
39793;BME280;26080;42.264;24.536;2023-05-22T04:32:06;98956.06;;;14.67;100.00
39793;BME280;26080;42.264;24.536;2023-05-22T04:34:35;98965.09;;;14.88;100.00
39793;BME280;26080;42.264;24.536;2023-05-22T04:37:02;98963.22;;;15.27;100.00
39793;BME280;26080;42.264;24.536;2023-05-22T04:39:28;98957.16;;;17.23;100.00
39793;BME280;26080;42.264;24.536;2023-05-22T04:41:53;98958.72;;;17.36;100.00
39793;BME280;26080;42.264;24.536;2023-05-22T04:44:19;98963.81;;;17.06;100.00
39793;BME280;26080;42.264;24.536;2023-05-22T04:46:47;98971.50;;;16.75;100.00
39793;BME280;26080;42.264;24.536;2023-05-22T04:49:13;98951.00;;;16.44;100.00
39793;BME280;26080;42.264;24.536;2023-05-22T04:51:38;98976.59;;;16.43;100.00
39793;BME280;26080;42.264;24.536;2023-05-22T04:54:04;98968.97;;;16.27;100.00
39793;BME280;26080;42.264;24.536;2023-05-22T04:56:29;98970.44;;;16.20;100.00
39793;BME280;26080;42.264;24.536;2023-05-22T04:58:56;98950.94;;;16.10;100.00
39793;BME280;26080;42.264;24.536;2023-05-22T05:01:21;98962.75;;;16.17;100.00
39793;BME280;26080;42.264;24.536;2023-05-22T05:03:47;98984.72;;;16.29;100.00
39793;BME280;26080;42.264;24.536;2023-05-22T05:06:13;98967.47;;;16.01;100.00
39793;BME280;26080;42.264;24.536;2023-05-22T05:08:38;98979.94;;;15.99;100.00
39793;BME280;26080;42.264;24.536;2023-05-22T05:11:04;98984.84;;;15.92;100.00
39793;BME280;26080;42.264;24.536;2023-05-22T05:13:29;98977.44;;;15.74;100.00
39793;BME280;26080;42.264;24.536;2023-05-22T05:15:57;98984.38;;;15.63;100.00
39793;BME280;26080;42.264;24.536;2023-05-22T05:18:23;98961.22;;;15.54;100.00
39793;BME280;26080;42.264;24.536;2023-05-22T05:20:50;98976.47;;;15.75;100.00
39793;BME280;26080;42.264;24.536;2023-05-22T05:23:15;98957.50;;;15.69;100.00
39793;BME280;26080;42.264;24.536;2023-05-22T05:25:41;98974.13;;;15.83;100.00
39793;BME280;26080;42.264;24.536;2023-05-22T05:28:07;98974.34;;;15.80;100.00
39793;BME280;26080;42.264;24.536;2023-05-22T05:30:38;98973.50;;;15.79;100.00
39793;BME280;26080;42.264;24.536;2023-05-22T05:33:04;98982.28;;;15.80;100.00
39793;BME280;26080;42.264;24.536;2023-05-22T05:35:30;98983.78;;;15.95;100.00
39793;BME280;26080;42.264;24.536;2023-05-22T05:37:55;98983.72;;;16.08;100.00
39793;BME280;26080;42.264;24.536;2023-05-22T05:40:22;98973.31;;;16.17;100.00
39793;BME280;26080;42.264;24.536;2023-05-22T05:42:48;98987.50;;;16.39;100.00
39793;BME280;26080;42.264;24.536;2023-05-22T05:45:14;98982.13;;;16.51;100.00
39793;BME280;26080;42.264;24.536;2023-05-22T05:47:39;98995.66;;;16.82;100.00
39793;BME280;26080;42.264;24.536;2023-05-22T05:50:05;98992.19;;;16.93;100.00
39793;BME280;26080;42.264;24.536;2023-05-22T05:52:31;98982.78;;;17.22;100.00
39793;BME280;26080;42.264;24.536;2023-05-22T05:54:58;98959.69;;;17.24;100.00
39793;BME280;26080;42.264;24.536;2023-05-22T05:57:25;99006.88;;;17.85;100.00
39793;BME280;26080;42.264;24.536;2023-05-22T05:59:51;98990.53;;;18.12;100.00
39793;BME280;26080;42.264;24.536;2023-05-22T06:02:16;99003.84;;;18.63;100.00
39793;BME280;26080;42.264;24.536;2023-05-22T06:04:42;99011.25;;;18.80;100.00
39793;BME280;26080;42.264;24.536;2023-05-22T06:07:07;99011.19;;;19.01;100.00
39793;BME280;26080;42.264;24.536;2023-05-22T06:09:32;99014.81;;;19.31;100.00
39793;BME280;26080;42.264;24.536;2023-05-22T06:11:58;99018.75;;;19.46;100.00
39793;BME280;26080;42.264;24.536;2023-05-22T06:14:23;99017.72;;;19.58;100.00
39793;BME280;26080;42.264;24.536;2023-05-22T06:16:49;99014.13;;;19.98;100.00
39793;BME280;26080;42.264;24.536;2023-05-22T06:19:14;99024.78;;;19.98;100.00
39793;BME280;26080;42.264;24.536;2023-05-22T06:21:40;99024.22;;;20.04;100.00
39793;BME280;26080;42.264;24.536;2023-05-22T06:24:05;99017.78;;;19.97;100.00
39793;BME280;26080;42.264;24.536;2023-05-22T06:26:31;99021.69;;;19.93;100.00
39793;BME280;26080;42.264;24.536;2023-05-22T06:28:57;99019.31;;;19.90;100.00
39793;BME280;26080;42.264;24.536;2023-05-22T06:31:22;99022.81;;;20.09;100.00
39793;BME280;26080;42.264;24.536;2023-05-22T06:33:49;99025.94;;;20.44;100.00
39793;BME280;26080;42.264;24.536;2023-05-22T06:36:18;99027.88;;;20.61;100.00
39793;BME280;26080;42.264;24.536;2023-05-22T06:38:43;99028.94;;;20.78;100.00
39793;BME280;26080;42.264;24.536;2023-05-22T06:41:10;99032.00;;;20.83;100.00
39793;BME280;26080;42.264;24.536;2023-05-22T06:43:35;99040.50;;;21.06;97.36
39793;BME280;26080;42.264;24.536;2023-05-22T06:46:01;99040.19;;;21.18;100.00
39793;BME280;26080;42.264;24.536;2023-05-22T06:48:26;99045.66;;;21.26;100.00
39793;BME280;26080;42.264;24.536;2023-05-22T06:50:52;99041.94;;;21.37;100.00
39793;BME280;26080;42.264;24.536;2023-05-22T06:53:17;99040.97;;;21.66;100.00
39793;BME280;26080;42.264;24.536;2023-05-22T06:55:43;99048.47;;;21.80;100.00
39793;BME280;26080;42.264;24.536;2023-05-22T06:58:08;99048.19;;;21.55;99.72
39793;BME280;26080;42.264;24.536;2023-05-22T07:00:33;99041.44;;;21.79;99.54
39793;BME280;26080;42.264;24.536;2023-05-22T07:02:59;99041.63;;;21.95;92.33
39793;BME280;26080;42.264;24.536;2023-05-22T07:05:24;99040.16;;;21.83;88.17
39793;BME280;26080;42.264;24.536;2023-05-22T07:07:50;99037.34;;;21.84;86.71
39793;BME280;26080;42.264;24.536;2023-05-22T07:10:15;99029.88;;;21.88;88.58
39793;BME280;26080;42.264;24.536;2023-05-22T07:12:41;99030.72;;;21.88;86.35
39793;BME280;26080;42.264;24.536;2023-05-22T07:15:06;99037.97;;;21.96;91.06
39793;BME280;26080;42.264;24.536;2023-05-22T07:17:36;99038.16;;;22.12;90.94
39793;BME280;26080;42.264;24.536;2023-05-22T07:20:01;99028.66;;;21.82;87.85
39793;BME280;26080;42.264;24.536;2023-05-22T07:22:27;99038.56;;;21.45;91.34
39793;BME280;26080;42.264;24.536;2023-05-22T07:24:53;99026.56;;;21.31;89.75
39793;BME280;26080;42.264;24.536;2023-05-22T07:27:18;99040.22;;;21.46;93.15
39793;BME280;26080;42.264;24.536;2023-05-22T07:29:43;99031.44;;;21.63;88.61
39793;BME280;26080;42.264;24.536;2023-05-22T07:32:09;99025.56;;;21.59;90.52
39793;BME280;26080;42.264;24.536;2023-05-22T07:34:39;99014.41;;;21.74;90.72
39793;BME280;26080;42.264;24.536;2023-05-22T07:37:06;99037.56;;;21.91;88.06
39793;BME280;26080;42.264;24.536;2023-05-22T07:39:32;99021.47;;;21.38;78.77
39793;BME280;26080;42.264;24.536;2023-05-22T07:41:58;99024.78;;;21.49;83.13
39793;BME280;26080;42.264;24.536;2023-05-22T07:44:23;99009.22;;;21.27;80.47
39793;BME280;26080;42.264;24.536;2023-05-22T07:46:49;99020.09;;;21.24;80.72
39793;BME280;26080;42.264;24.536;2023-05-22T07:49:16;99031.00;;;21.40;83.66
39793;BME280;26080;42.264;24.536;2023-05-22T07:51:44;99012.34;;;21.68;85.07
39793;BME280;26080;42.264;24.536;2023-05-22T07:54:09;98998.56;;;21.72;78.67
39793;BME280;26080;42.264;24.536;2023-05-22T07:56:35;99016.03;;;22.02;81.87
39793;BME280;26080;42.264;24.536;2023-05-22T07:59:04;99015.91;;;22.22;77.72
39793;BME280;26080;42.264;24.536;2023-05-22T08:01:31;98995.94;;;22.26;79.30
39793;BME280;26080;42.264;24.536;2023-05-22T08:03:57;99012.16;;;22.50;74.53
39793;BME280;26080;42.264;24.536;2023-05-22T08:06:22;99009.66;;;22.31;73.81
39793;BME280;26080;42.264;24.536;2023-05-22T08:08:49;99016.97;;;22.29;75.28
39793;BME280;26080;42.264;24.536;2023-05-22T08:11:14;99019.94;;;22.26;76.02
39793;BME280;26080;42.264;24.536;2023-05-22T08:13:39;99015.91;;;22.22;77.40
39793;BME280;26080;42.264;24.536;2023-05-22T08:16:05;99016.25;;;22.44;75.80
39793;BME280;26080;42.264;24.536;2023-05-22T08:18:31;99021.06;;;22.41;83.18
39793;BME280;26080;42.264;24.536;2023-05-22T08:20:56;99018.22;;;22.60;83.75
39793;BME280;26080;42.264;24.536;2023-05-22T08:23:22;99014.63;;;22.69;84.24
39793;BME280;26080;42.264;24.536;2023-05-22T08:25:47;99024.53;;;22.59;84.44
39793;BME280;26080;42.264;24.536;2023-05-22T08:28:14;99008.00;;;22.56;81.85
39793;BME280;26080;42.264;24.536;2023-05-22T08:30:39;99017.53;;;22.58;85.66
39793;BME280;26080;42.264;24.536;2023-05-22T08:33:05;99029.31;;;22.73;82.95
39793;BME280;26080;42.264;24.536;2023-05-22T08:35:30;99028.19;;;23.02;82.15
39793;BME280;26080;42.264;24.536;2023-05-22T08:37:56;99022.63;;;23.21;80.10
39793;BME280;26080;42.264;24.536;2023-05-22T08:40:22;99016.03;;;23.42;79.90
39793;BME280;26080;42.264;24.536;2023-05-22T08:42:48;99018.31;;;23.62;85.78
39793;BME280;26080;42.264;24.536;2023-05-22T08:45:18;99011.63;;;23.58;79.15
39793;BME280;26080;42.264;24.536;2023-05-22T08:47:45;99014.69;;;23.72;79.68
39793;BME280;26080;42.264;24.536;2023-05-22T08:50:11;99001.81;;;23.75;77.09
39793;BME280;26080;42.264;24.536;2023-05-22T08:52:49;99012.53;;;23.91;76.12
39793;BME280;26080;42.264;24.536;2023-05-22T08:55:15;99010.56;;;24.10;73.99
39793;BME280;26080;42.264;24.536;2023-05-22T08:57:48;99011.91;;;24.22;74.47
39793;BME280;26080;42.264;24.536;2023-05-22T09:00:15;99009.72;;;24.26;70.88
39793;BME280;26080;42.264;24.536;2023-05-22T09:02:41;99007.28;;;24.40;70.51
39793;BME280;26080;42.264;24.536;2023-05-22T09:05:07;98996.72;;;24.39;67.16
39793;BME280;26080;42.264;24.536;2023-05-22T09:07:33;98987.50;;;24.25;68.14
39793;BME280;26080;42.264;24.536;2023-05-22T09:09:59;98991.34;;;24.06;73.86
39793;BME280;26080;42.264;24.536;2023-05-22T09:12:25;98990.47;;;23.89;73.94
39793;BME280;26080;42.264;24.536;2023-05-22T09:14:54;98997.53;;;23.99;70.69
39793;BME280;26080;42.264;24.536;2023-05-22T09:17:20;98993.66;;;24.09;66.58
39793;BME280;26080;42.264;24.536;2023-05-22T09:19:46;98990.81;;;24.11;73.54
39793;BME280;26080;42.264;24.536;2023-05-22T09:22:12;98992.00;;;24.08;74.42
39793;BME280;26080;42.264;24.536;2023-05-22T09:24:39;98973.44;;;23.90;72.71
39793;BME280;26080;42.264;24.536;2023-05-22T09:27:06;98987.97;;;23.96;75.50
39793;BME280;26080;42.264;24.536;2023-05-22T09:29:45;98981.78;;;23.96;72.17
39793;BME280;26080;42.264;24.536;2023-05-22T09:32:13;98997.88;;;24.28;75.12
39793;BME280;26080;42.264;24.536;2023-05-22T09:34:39;98999.88;;;24.67;77.88
39793;BME280;26080;42.264;24.536;2023-05-22T09:37:04;99000.84;;;24.98;73.86
39793;BME280;26080;42.264;24.536;2023-05-22T09:39:42;99005.34;;;24.98;71.46
39793;BME280;26080;42.264;24.536;2023-05-22T09:42:09;99001.34;;;25.02;69.92
39793;BME280;26080;42.264;24.536;2023-05-22T09:44:36;99005.19;;;24.99;69.57
39793;BME280;26080;42.264;24.536;2023-05-22T09:47:02;99008.53;;;24.93;72.32
39793;BME280;26080;42.264;24.536;2023-05-22T09:49:28;98999.88;;;24.75;71.53
39793;BME280;26080;42.264;24.536;2023-05-22T09:51:54;99002.84;;;24.88;74.87
39793;BME280;26080;42.264;24.536;2023-05-22T09:54:21;98994.88;;;24.56;70.73
39793;BME280;26080;42.264;24.536;2023-05-22T09:56:54;98993.69;;;24.17;70.54
39793;BME280;26080;42.264;24.536;2023-05-22T09:59:25;98984.84;;;24.49;69.48
39793;BME280;26080;42.264;24.536;2023-05-22T10:01:52;98991.84;;;24.50;78.53
39793;BME280;26080;42.264;24.536;2023-05-22T10:04:20;98996.91;;;24.54;74.03
39793;BME280;26080;42.264;24.536;2023-05-22T10:06:51;98982.47;;;24.63;69.50
39793;BME280;26080;42.264;24.536;2023-05-22T10:09:20;98980.16;;;24.68;74.27
39793;BME280;26080;42.264;24.536;2023-05-22T10:15:01;98983.25;;;25.12;70.17
39793;BME280;26080;42.264;24.536;2023-05-22T10:17:27;98978.66;;;25.21;65.04
39793;BME280;26080;42.264;24.536;2023-05-22T10:19:54;98978.19;;;25.56;68.15
39793;BME280;26080;42.264;24.536;2023-05-22T10:22:21;98973.19;;;25.45;65.80
39793;BME280;26080;42.264;24.536;2023-05-22T10:24:50;98978.81;;;25.27;64.04
39793;BME280;26080;42.264;24.536;2023-05-22T10:27:16;98974.72;;;25.08;64.74
39793;BME280;26080;42.264;24.536;2023-05-22T10:29:53;98953.03;;;25.26;65.53
39793;BME280;26080;42.264;24.536;2023-05-22T10:35:04;98968.06;;;25.66;60.32
39793;BME280;26080;42.264;24.536;2023-05-22T10:37:49;98965.59;;;25.88;60.16
39793;BME280;26080;42.264;24.536;2023-05-22T10:40:31;98967.09;;;25.59;61.97
39793;BME280;26080;42.264;24.536;2023-05-22T10:42:58;98941.22;;;25.04;60.98
39793;BME280;26080;42.264;24.536;2023-05-22T10:45:26;98975.88;;;25.06;59.44
39793;BME280;26080;42.264;24.536;2023-05-22T10:48:07;98979.59;;;24.80;62.63
39793;BME280;26080;42.264;24.536;2023-05-22T10:50:34;98976.13;;;24.64;63.78
39793;BME280;26080;42.264;24.536;2023-05-22T10:53:25;98977.50;;;24.35;63.86
39793;BME280;26080;42.264;24.536;2023-05-22T10:55:53;98985.31;;;24.04;65.01
39793;BME280;26080;42.264;24.536;2023-05-22T10:58:30;98972.88;;;23.62;62.74
39793;BME280;26080;42.264;24.536;2023-05-22T11:01:31;98975.19;;;23.15;66.04
39793;BME280;26080;42.264;24.536;2023-05-22T11:09:16;98986.59;;;21.76;70.04
39793;BME280;26080;42.264;24.536;2023-05-22T11:11:42;98994.69;;;20.36;90.55
39793;BME280;26080;42.264;24.536;2023-05-22T11:14:10;99012.47;;;18.55;100.00
39793;BME280;26080;42.264;24.536;2023-05-22T11:16:37;98994.25;;;18.09;100.00
39793;BME280;26080;42.264;24.536;2023-05-22T11:19:07;98980.38;;;17.96;100.00
39793;BME280;26080;42.264;24.536;2023-05-22T11:21:44;98966.19;;;17.86;100.00
39793;BME280;26080;42.264;24.536;2023-05-22T11:24:12;98948.84;;;17.82;100.00
39793;BME280;26080;42.264;24.536;2023-05-22T11:26:43;98942.25;;;17.65;100.00
39793;BME280;26080;42.264;24.536;2023-05-22T11:29:09;98940.56;;;17.75;100.00
39793;BME280;26080;42.264;24.536;2023-05-22T11:31:35;98942.84;;;17.80;100.00
39793;BME280;26080;42.264;24.536;2023-05-22T11:34:02;98953.06;;;17.84;100.00
39793;BME280;26080;42.264;24.536;2023-05-22T11:36:27;98930.56;;;17.79;100.00
39793;BME280;26080;42.264;24.536;2023-05-22T11:38:59;98941.84;;;18.13;100.00
39793;BME280;26080;42.264;24.536;2023-05-22T11:41:32;98933.69;;;18.46;100.00
39793;BME280;26080;42.264;24.536;2023-05-22T11:43:59;98953.41;;;18.74;100.00
39793;BME280;26080;42.264;24.536;2023-05-22T11:46:25;98947.66;;;19.00;100.00
39793;BME280;26080;42.264;24.536;2023-05-22T11:48:51;98940.44;;;19.11;100.00
39793;BME280;26080;42.264;24.536;2023-05-22T11:51:20;98961.63;;;19.51;100.00
39793;BME280;26080;42.264;24.536;2023-05-22T11:53:46;98941.69;;;19.76;100.00
39793;BME280;26080;42.264;24.536;2023-05-22T11:56:12;98976.94;;;20.17;100.00
39793;BME280;26080;42.264;24.536;2023-05-22T11:58:37;98987.53;;;20.36;100.00
39793;BME280;26080;42.264;24.536;2023-05-22T12:01:03;98986.13;;;20.61;100.00
39793;BME280;26080;42.264;24.536;2023-05-22T12:03:30;98987.50;;;20.75;100.00
39793;BME280;26080;42.264;24.536;2023-05-22T12:05:56;98993.06;;;20.91;100.00
39793;BME280;26080;42.264;24.536;2023-05-22T12:08:25;98998.38;;;20.91;100.00
39793;BME280;26080;42.264;24.536;2023-05-22T12:10:52;98963.69;;;20.83;100.00
39793;BME280;26080;42.264;24.536;2023-05-22T12:13:22;99005.34;;;21.02;100.00
39793;BME280;26080;42.264;24.536;2023-05-22T12:15:48;99004.19;;;21.14;100.00
39793;BME280;26080;42.264;24.536;2023-05-22T12:18:13;99003.22;;;21.06;98.87
39793;BME280;26080;42.264;24.536;2023-05-22T12:20:41;99010.81;;;21.00;100.00
39793;BME280;26080;42.264;24.536;2023-05-22T12:23:21;98989.88;;;20.78;100.00
39793;BME280;26080;42.264;24.536;2023-05-22T12:25:46;99018.53;;;20.94;100.00
39793;BME280;26080;42.264;24.536;2023-05-22T12:28:12;99014.50;;;20.80;100.00
39793;BME280;26080;42.264;24.536;2023-05-22T12:30:41;98988.13;;;20.21;100.00
39793;BME280;26080;42.264;24.536;2023-05-22T12:33:11;99027.47;;;20.17;100.00
39793;BME280;26080;42.264;24.536;2023-05-22T12:35:37;99030.09;;;20.07;100.00
39793;BME280;26080;42.264;24.536;2023-05-22T12:38:06;99009.53;;;20.00;100.00
39793;BME280;26080;42.264;24.536;2023-05-22T12:40:31;99014.44;;;19.95;100.00
39793;BME280;26080;42.264;24.536;2023-05-22T12:42:56;98994.56;;;19.79;100.00
39793;BME280;26080;42.264;24.536;2023-05-22T12:45:22;99007.16;;;19.97;100.00
39793;BME280;26080;42.264;24.536;2023-05-22T12:47:47;99005.19;;;19.99;100.00
39793;BME280;26080;42.264;24.536;2023-05-22T12:50:13;99003.50;;;19.98;100.00
39793;BME280;26080;42.264;24.536;2023-05-22T12:52:39;98974.13;;;19.70;100.00
39793;BME280;26080;42.264;24.536;2023-05-22T12:55:05;98994.00;;;19.95;100.00
39793;BME280;26080;42.264;24.536;2023-05-22T12:57:31;98997.94;;;19.91;100.00
39793;BME280;26080;42.264;24.536;2023-05-22T12:59:56;98990.81;;;20.01;100.00
39793;BME280;26080;42.264;24.536;2023-05-22T13:02:22;98958.03;;;20.01;100.00
39793;BME280;26080;42.264;24.536;2023-05-22T13:04:47;98971.88;;;20.14;100.00
39793;BME280;26080;42.264;24.536;2023-05-22T13:07:13;98980.00;;;20.22;100.00
39793;BME280;26080;42.264;24.536;2023-05-22T13:09:38;98963.38;;;20.20;100.00